createdAt,value
2023-01-04T00:01:12.211Z,14.73
2023-01-04T00:03:39.306Z,20.43
2023-01-04T00:06:07.632Z,17.73
2023-01-04T00:08:35.399Z,17.27
2023-01-04T00:11:14.925Z,19.43
2023-01-04T00:13:41.323Z,19.97
2023-01-04T00:16:11.732Z,19.47
2023-01-04T00:18:38.516Z,17.90
2023-01-04T00:21:10.427Z,17.70
2023-01-04T00:23:40.931Z,18.50
2023-01-04T00:26:12.482Z,20.98
2023-01-04T00:28:39.581Z,19.27
2023-01-04T00:31:08.156Z,19.20
2023-01-04T00:33:34.895Z,19.03
2023-01-04T00:36:09.843Z,21.00
2023-01-04T00:38:37.107Z,18.50
2023-01-04T00:41:05.077Z,18.17
2023-01-04T00:43:31.611Z,17.07
2023-01-04T00:45:58.379Z,18.57
2023-01-04T00:48:24.835Z,16.33
2023-01-04T00:50:51.645Z,16.13
2023-01-04T00:53:18.762Z,18.20
2023-01-04T00:55:46.017Z,16.97
2023-01-04T00:58:12.609Z,15.63
2023-01-04T01:00:39.541Z,16.30
2023-01-04T01:03:06.641Z,12.97
2023-01-04T01:05:35.026Z,14.43
2023-01-04T01:08:02.742Z,18.20
2023-01-04T01:10:29.053Z,17.37
2023-01-04T01:12:55.355Z,17.57
2023-01-04T01:15:21.609Z,21.90
2023-01-04T01:17:47.923Z,20.47
2023-01-04T01:20:14.373Z,20.53
2023-01-04T01:22:41.079Z,16.47
2023-01-04T01:25:07.882Z,18.37
2023-01-04T01:27:34.194Z,20.17
2023-01-04T01:30:00.670Z,14.90
2023-01-04T01:32:27.305Z,12.83
2023-01-04T01:34:53.619Z,17.83
2023-01-04T01:37:20.065Z,19.27
2023-01-04T01:39:46.414Z,20.97
2023-01-04T01:42:20.469Z,18.00
2023-01-04T01:44:57.376Z,19.83
2023-01-04T01:47:29.333Z,19.57
2023-01-04T01:49:56.491Z,18.77
2023-01-04T01:52:31.042Z,17.37
2023-01-04T01:55:01.831Z,16.87
2023-01-04T01:57:33.528Z,18.75
2023-01-04T02:00:05.750Z,19.50
2023-01-04T02:02:32.478Z,17.57
2023-01-04T02:05:01.487Z,24.90
2023-01-04T02:07:28.784Z,16.07
2023-01-04T02:09:57.701Z,17.53
2023-01-04T02:12:25.285Z,17.83
2023-01-04T02:14:52.038Z,17.33
2023-01-04T02:17:44.118Z,20.40
2023-01-04T02:20:31.154Z,18.13
2023-01-04T02:23:09.296Z,20.13
2023-01-04T02:25:57.845Z,16.20
2023-01-04T02:29:00.441Z,18.63
2023-01-04T02:31:41.802Z,23.53
2023-01-04T02:34:39.623Z,19.57
2023-01-04T02:37:21.222Z,21.17
2023-01-04T02:40:08.116Z,19.00
2023-01-04T02:43:00.375Z,22.00
2023-01-04T02:45:34.483Z,19.83
2023-01-04T02:48:08.479Z,18.70
2023-01-04T02:50:49.522Z,19.03
2023-01-04T02:53:23.115Z,20.77
2023-01-04T02:56:01.440Z,21.60
2023-01-04T02:58:57.046Z,20.93
2023-01-04T03:01:57.229Z,22.33
2023-01-04T03:04:39.212Z,19.83
2023-01-04T03:07:18.143Z,22.30
2023-01-04T03:09:49.352Z,18.53
2023-01-04T03:12:23.470Z,19.77
2023-01-04T03:15:01.460Z,21.73
2023-01-04T03:17:33.328Z,22.40
2023-01-04T03:20:02.607Z,23.53
2023-01-04T03:22:40.921Z,20.63
2023-01-04T03:25:08.864Z,21.77
2023-01-04T03:27:35.416Z,21.33
2023-01-04T03:30:07.743Z,18.33
2023-01-04T03:32:47.426Z,19.73
2023-01-04T03:35:14.063Z,20.47
2023-01-04T03:38:02.216Z,18.73
2023-01-04T03:40:32.544Z,19.67
2023-01-04T03:43:07.718Z,19.02
2023-01-04T03:45:42.842Z,18.73
2023-01-04T03:48:19.561Z,18.77
2023-01-04T03:50:51.173Z,22.50
2023-01-04T03:53:18.260Z,18.17
2023-01-04T03:55:46.224Z,19.57
2023-01-04T03:58:13.008Z,17.70
2023-01-04T04:00:39.533Z,18.30
2023-01-04T04:03:07.657Z,17.03
2023-01-04T04:05:37.914Z,19.57
2023-01-04T04:08:04.761Z,17.80
2023-01-04T04:10:31.156Z,17.27
2023-01-04T04:12:57.623Z,20.03
2023-01-04T04:15:24.034Z,18.83
2023-01-04T04:17:50.373Z,21.63
2023-01-04T04:20:16.854Z,26.07
2023-01-04T04:22:43.282Z,20.10
2023-01-04T04:25:09.880Z,22.47
2023-01-04T04:27:36.412Z,19.67
2023-01-04T04:30:03.172Z,21.00
2023-01-04T04:32:29.558Z,18.20
2023-01-04T04:34:56.041Z,21.43
2023-01-04T04:37:22.377Z,18.50
2023-01-04T04:39:48.715Z,25.87
2023-01-04T04:42:15.088Z,16.33
2023-01-04T04:44:41.603Z,22.47
2023-01-04T04:47:08.766Z,20.23
2023-01-04T04:49:35.250Z,20.60
2023-01-04T04:52:01.835Z,21.23
2023-01-04T04:54:28.167Z,15.73
2023-01-04T04:56:54.522Z,19.03
2023-01-04T04:59:20.970Z,16.70
2023-01-04T05:01:47.431Z,21.67
2023-01-04T05:04:14.036Z,20.90
2023-01-04T05:06:40.343Z,22.23
2023-01-04T05:09:06.827Z,23.83
2023-01-04T05:11:33.344Z,23.77
2023-01-04T05:13:59.786Z,26.33
2023-01-04T05:16:26.199Z,24.40
2023-01-04T05:18:52.583Z,19.93
2023-01-04T05:21:20.404Z,19.53
2023-01-04T05:23:47.051Z,17.33
2023-01-04T05:26:13.424Z,17.10
2023-01-04T05:28:39.879Z,17.77
2023-01-04T05:31:06.507Z,22.10
2023-01-04T05:33:33.729Z,19.33
2023-01-04T05:36:02.366Z,17.97
2023-01-04T05:38:29.692Z,19.03
2023-01-04T05:40:56.477Z,20.13
2023-01-04T05:43:24.099Z,17.10
2023-01-04T05:45:53.525Z,22.27
2023-01-04T05:48:21.591Z,22.27
2023-01-04T05:50:48.540Z,22.77
2023-01-04T05:53:17.293Z,21.80
2023-01-04T05:55:44.748Z,17.47
2023-01-04T05:58:11.290Z,19.20
2023-01-04T06:00:37.922Z,20.27
2023-01-04T06:03:04.445Z,19.53
2023-01-04T06:05:30.918Z,19.90
2023-01-04T06:07:57.267Z,17.10
2023-01-04T06:10:23.771Z,23.60
2023-01-04T06:12:50.382Z,18.80
2023-01-04T06:15:16.808Z,19.80
2023-01-04T06:17:43.325Z,19.90
2023-01-04T06:20:11.226Z,20.47
2023-01-04T06:22:38.530Z,18.50
2023-01-04T06:25:05.371Z,19.43
2023-01-04T06:27:32.099Z,17.47
2023-01-04T06:29:58.500Z,20.33
2023-01-04T06:32:24.828Z,20.60
2023-01-04T06:34:51.107Z,17.67
2023-01-04T06:37:17.726Z,22.37
2023-01-04T06:39:44.194Z,19.23
2023-01-04T06:42:10.627Z,19.53
2023-01-04T06:44:37.105Z,16.53
2023-01-04T06:47:03.477Z,21.80
2023-01-04T06:49:29.958Z,14.33
2023-01-04T06:51:56.428Z,17.50
2023-01-04T06:54:22.886Z,18.47
2023-01-04T06:56:49.233Z,19.43
2023-01-04T06:59:15.817Z,17.63
2023-01-04T07:01:42.217Z,16.83
2023-01-04T07:04:08.706Z,17.67
2023-01-04T07:06:35.039Z,18.90
2023-01-04T07:09:01.483Z,17.10
2023-01-04T07:11:27.903Z,22.97
2023-01-04T07:13:54.299Z,24.70
2023-01-04T07:16:20.736Z,24.40
2023-01-04T07:18:47.271Z,21.07
2023-01-04T07:21:15.893Z,20.27
2023-01-04T07:23:42.215Z,16.70
2023-01-04T07:26:09.764Z,24.07
2023-01-04T07:28:36.407Z,21.70
2023-01-04T07:31:10.360Z,23.10
2023-01-04T07:33:36.987Z,20.17
2023-01-04T07:36:06.316Z,19.43
2023-01-04T07:38:36.103Z,19.97
2023-01-04T07:41:02.527Z,20.10
2023-01-04T07:43:31.491Z,22.27
2023-01-04T07:45:58.102Z,19.37
2023-01-04T07:48:24.799Z,19.10
2023-01-04T07:50:51.195Z,19.37
2023-01-04T07:53:17.530Z,18.47
2023-01-04T07:55:45.063Z,15.90
2023-01-04T07:58:11.515Z,17.97
2023-01-04T08:00:37.865Z,22.30
2023-01-04T08:03:04.478Z,20.40
2023-01-04T08:05:34.741Z,25.33
2023-01-04T08:08:01.448Z,22.10
2023-01-04T08:10:27.792Z,21.07
2023-01-04T08:12:54.207Z,20.53
2023-01-04T08:15:20.867Z,20.03
2023-01-04T08:17:47.330Z,23.13
2023-01-04T08:20:13.658Z,22.07
2023-01-04T08:22:40.090Z,19.83
2023-01-04T08:25:06.889Z,22.23
2023-01-04T08:27:33.762Z,24.07
2023-01-04T08:30:00.286Z,21.57
2023-01-04T08:32:27.123Z,25.40
2023-01-04T08:34:53.474Z,25.77
2023-01-04T08:37:20.492Z,25.77
2023-01-04T08:39:49.330Z,24.43
2023-01-04T08:42:22.392Z,24.00
2023-01-04T08:44:59.114Z,23.03
2023-01-04T08:47:27.726Z,23.60
2023-01-04T08:49:54.449Z,22.50
2023-01-04T08:52:21.414Z,23.87
2023-01-04T08:54:48.447Z,22.97
2023-01-04T08:57:15.999Z,21.30
2023-01-04T08:59:42.588Z,23.93
2023-01-04T09:02:21.613Z,24.00
2023-01-04T09:04:48.605Z,28.13
2023-01-04T09:07:16.435Z,24.87
2023-01-04T09:09:43.628Z,25.40
2023-01-04T09:12:10.204Z,25.13
2023-01-04T09:14:36.618Z,26.90
2023-01-04T09:17:03.366Z,25.77
2023-01-04T09:19:31.652Z,25.37
2023-01-04T09:21:58.131Z,25.80
2023-01-04T09:24:24.575Z,24.23
2023-01-04T09:26:51.101Z,22.90
2023-01-04T09:29:17.549Z,22.20
2023-01-04T09:31:44.179Z,19.43
2023-01-04T09:34:16.124Z,21.50
2023-01-04T09:36:44.962Z,19.47
2023-01-04T09:39:18.863Z,23.23
2023-01-04T09:41:55.327Z,21.27
2023-01-04T09:47:45.922Z,20.90
2023-01-04T09:50:22.005Z,23.15
2023-01-04T09:52:56.092Z,19.05
2023-01-04T09:55:37.824Z,21.02
2023-01-04T09:58:19.166Z,21.35
2023-01-04T10:00:53.454Z,23.25
2023-01-04T10:03:28.410Z,22.05
2023-01-04T10:05:56.448Z,18.40
2023-01-04T10:08:23.304Z,23.25
2023-01-04T10:11:18.957Z,24.48
2023-01-04T10:14:10.247Z,22.65
2023-01-04T10:17:11.344Z,23.55
2023-01-04T10:22:58.794Z,23.95
2023-01-04T10:25:55.878Z,27.38
2023-01-04T10:28:59.963Z,31.25
2023-01-04T10:31:39.878Z,36.40
2023-01-04T10:34:37.916Z,31.75
2023-01-04T10:37:11.266Z,31.27
2023-01-04T10:39:39.495Z,30.17
2023-01-04T10:42:22.978Z,25.95
2023-01-04T10:45:09.482Z,24.48
2023-01-04T10:48:13.916Z,34.72
2023-01-04T10:51:09.815Z,24.00
2023-01-04T10:53:57.471Z,24.77
2023-01-04T10:56:32.934Z,24.88
2023-01-04T10:59:13.403Z,25.35
2023-01-04T11:01:48.976Z,23.23
2023-01-04T11:04:25.005Z,18.23
2023-01-04T11:06:57.609Z,14.23
2023-01-04T11:09:29.726Z,12.27
2023-01-04T11:11:57.407Z,9.30
2023-01-04T11:14:24.857Z,10.07
2023-01-04T11:16:56.508Z,10.52
2023-01-04T11:19:23.017Z,7.70
2023-01-04T11:22:00.420Z,6.25
2023-01-04T11:24:34.269Z,4.03
2023-01-04T11:27:16.197Z,4.03
2023-01-04T11:29:56.206Z,5.97
2023-01-04T11:32:45.983Z,6.38
2023-01-04T11:35:12.552Z,7.22
2023-01-04T11:37:43.833Z,4.75
2023-01-04T11:40:16.283Z,3.95
2023-01-04T11:42:44.075Z,4.03
2023-01-04T11:45:23.953Z,3.20
2023-01-04T11:47:56.287Z,2.00
2023-01-04T11:50:47.113Z,3.03
2023-01-04T11:53:25.935Z,2.65
2023-01-04T11:56:09.806Z,3.00
2023-01-04T11:58:36.250Z,1.15
2023-01-04T12:01:02.937Z,2.38
2023-01-04T12:03:36.484Z,1.98
2023-01-04T12:06:03.278Z,1.50
2023-01-04T12:08:34.153Z,1.40
2023-01-04T12:13:29.256Z,1.48
2023-01-04T12:16:03.360Z,3.08
2023-01-04T12:18:35.918Z,2.97
2023-01-04T12:21:03.511Z,2.25
2023-01-04T12:23:30.391Z,2.35
2023-01-04T12:25:59.440Z,4.13
2023-01-04T12:28:36.154Z,2.22
2023-01-04T12:31:21.760Z,6.15
2023-01-04T12:33:53.365Z,2.65
2023-01-04T12:36:38.900Z,3.28
2023-01-04T12:39:14.388Z,4.43
2023-01-04T12:41:43.620Z,3.85
2023-01-04T12:44:37.885Z,2.92
2023-01-04T12:47:29.959Z,3.53
2023-01-04T12:49:56.283Z,1.70
2023-01-04T12:52:37.748Z,3.03
2023-01-04T12:55:30.861Z,3.35
2023-01-04T12:58:04.162Z,3.85
2023-01-04T13:01:05.551Z,3.15
2023-01-04T13:03:32.109Z,2.80
2023-01-04T13:06:04.843Z,2.38
2023-01-04T13:08:31.666Z,2.53
2023-01-04T13:10:58.326Z,3.92
2023-01-04T13:13:49.356Z,4.07
2023-01-04T13:19:12.495Z,1.65
2023-01-04T13:21:44.093Z,3.95
2023-01-04T13:24:21.363Z,1.45
2023-01-04T13:26:48.543Z,4.03
2023-01-04T13:29:26.348Z,2.58
2023-01-04T13:32:12.121Z,6.78
2023-01-04T13:34:45.947Z,1.60
2023-01-04T13:37:12.460Z,2.42
2023-01-04T13:39:47.084Z,3.38
2023-01-04T13:42:21.871Z,1.90
2023-01-04T13:45:20.910Z,3.45
2023-01-04T13:47:50.914Z,2.17
2023-01-04T13:50:25.442Z,1.92
2023-01-04T13:53:05.498Z,5.55
2023-01-04T13:55:34.781Z,4.03
2023-01-04T13:58:02.213Z,2.30
2023-01-04T14:00:42.419Z,1.55
2023-01-04T14:03:30.267Z,2.97
2023-01-04T14:06:21.100Z,3.35
2023-01-04T14:09:16.485Z,3.42
2023-01-04T14:11:51.306Z,4.55
2023-01-04T14:14:23.039Z,1.55
2023-01-04T14:16:51.302Z,3.05
2023-01-04T14:19:47.065Z,3.15
2023-01-04T14:22:33.419Z,1.13
2023-01-04T14:25:21.950Z,2.67
2023-01-04T14:27:48.492Z,6.35
2023-01-04T14:30:17.880Z,2.13
2023-01-04T14:33:02.765Z,0.70
2023-01-04T14:35:32.883Z,1.88
2023-01-04T14:38:05.000Z,2.20
2023-01-04T14:40:31.952Z,4.00
2023-01-04T14:42:58.550Z,1.23
2023-01-04T14:45:25.179Z,2.08
2023-01-04T14:47:51.758Z,2.90
2023-01-04T14:50:18.547Z,0.85
2023-01-04T14:52:53.942Z,1.92
2023-01-04T14:55:21.188Z,1.42
2023-01-04T14:57:47.817Z,2.63
2023-01-04T15:00:19.935Z,1.27
2023-01-04T15:02:47.090Z,1.40
2023-01-04T15:05:13.685Z,1.52
2023-01-04T15:07:40.216Z,1.10
2023-01-04T15:10:27.562Z,0.93
2023-01-04T15:12:54.664Z,0.93
2023-01-04T15:15:21.330Z,1.15
2023-01-04T15:17:48.101Z,2.15
2023-01-04T15:20:15.251Z,0.50
2023-01-04T15:22:42.638Z,0.80
2023-01-04T15:25:10.795Z,1.00
2023-01-04T15:27:42.154Z,1.20
2023-01-04T15:30:11.806Z,2.63
2023-01-04T15:32:38.921Z,0.98
2023-01-04T15:35:05.936Z,1.50
2023-01-04T15:37:32.417Z,2.30
2023-01-04T15:40:02.574Z,1.05
2023-01-04T15:42:29.803Z,1.30
2023-01-04T15:44:57.133Z,2.15
2023-01-04T15:47:23.763Z,1.70
2023-01-04T15:49:50.153Z,0.77
2023-01-04T15:52:16.488Z,1.27
2023-01-04T15:54:42.970Z,1.00
2023-01-04T15:57:09.424Z,0.40
2023-01-04T15:59:36.024Z,1.08
2023-01-04T16:02:03.162Z,3.28
2023-01-04T16:04:29.687Z,1.63
2023-01-04T16:06:56.276Z,1.30
2023-01-04T16:09:23.043Z,2.13
2023-01-04T16:11:49.814Z,1.77
2023-01-04T16:14:16.151Z,1.02
2023-01-04T16:16:42.465Z,0.90
2023-01-04T16:19:09.156Z,0.95
2023-01-04T16:21:35.597Z,1.80
2023-01-04T16:24:09.452Z,0.90
2023-01-04T16:26:43.756Z,3.40
2023-01-04T16:29:11.544Z,0.70
2023-01-04T16:31:38.996Z,1.08
2023-01-04T16:34:06.364Z,0.98
2023-01-04T16:36:33.042Z,1.33
2023-01-04T16:39:01.856Z,1.02
2023-01-04T16:41:28.209Z,4.45
2023-01-04T16:43:57.006Z,2.47
2023-01-04T16:46:28.475Z,1.02
2023-01-04T16:48:57.103Z,0.63
2023-01-04T16:51:25.645Z,1.10
2023-01-04T16:53:53.651Z,4.88
2023-01-04T16:56:22.016Z,1.23
2023-01-04T16:58:48.838Z,1.27
2023-01-04T17:01:20.130Z,2.17
2023-01-04T17:03:47.479Z,1.05
2023-01-04T17:06:25.390Z,2.05
2023-01-04T17:08:53.668Z,0.80
2023-01-04T17:14:20.792Z,0.98
2023-01-04T17:16:47.336Z,1.13
2023-01-04T17:19:13.745Z,3.00
2023-01-04T17:21:41.885Z,1.50
2023-01-04T17:24:10.006Z,1.08
2023-01-04T17:26:36.714Z,2.47
2023-01-04T17:29:03.382Z,2.25
2023-01-04T17:31:32.593Z,1.25
2023-01-04T17:33:59.592Z,2.22
2023-01-04T17:36:26.559Z,1.02
2023-01-04T17:38:53.086Z,1.30
2023-01-04T17:41:24.414Z,1.23
2023-01-04T17:43:53.676Z,2.05
2023-01-04T17:46:23.481Z,1.73
2023-01-04T17:48:58.964Z,2.90
2023-01-04T17:51:38.741Z,2.28
2023-01-04T17:54:06.132Z,3.35
2023-01-04T17:56:32.971Z,0.95
2023-01-04T17:59:01.816Z,2.22
2023-01-04T18:01:28.995Z,2.85
2023-01-04T18:03:57.767Z,1.33
2023-01-04T18:06:26.934Z,2.35
2023-01-04T18:08:57.527Z,1.70
2023-01-04T18:11:24.903Z,1.10
2023-01-04T18:13:51.982Z,1.70
2023-01-04T18:16:25.465Z,1.80
2023-01-04T18:18:53.411Z,1.98
2023-01-04T18:21:29.114Z,2.97
2023-01-04T18:24:34.588Z,1.38
2023-01-04T18:29:33.502Z,1.63
2023-01-04T18:32:00.388Z,1.10
2023-01-04T18:34:27.263Z,1.15
2023-01-04T18:36:53.836Z,1.17
2023-01-04T18:39:20.753Z,0.90
2023-01-04T18:41:47.302Z,2.08
2023-01-04T18:44:31.952Z,1.23
2023-01-04T18:46:59.691Z,1.38
2023-01-04T18:49:26.119Z,4.70
2023-01-04T18:51:52.445Z,1.70
2023-01-04T18:54:18.911Z,2.58
2023-01-04T18:56:45.293Z,0.63
2023-01-04T18:59:11.941Z,1.55
2023-01-04T19:01:38.540Z,0.90
2023-01-04T19:04:06.059Z,1.10
2023-01-04T19:06:32.377Z,0.70
2023-01-04T19:09:06.135Z,2.03
2023-01-04T19:11:32.940Z,1.83
2023-01-04T19:13:59.284Z,2.00
2023-01-04T19:16:25.912Z,1.65
2023-01-04T19:18:53.130Z,1.48
2023-01-04T19:21:19.782Z,0.70
2023-01-04T19:23:46.118Z,2.88
2023-01-04T19:26:12.479Z,1.60
2023-01-04T19:28:38.853Z,0.60
2023-01-04T19:31:07.282Z,2.97
2023-01-04T19:33:34.079Z,1.02
2023-01-04T19:36:00.395Z,2.08
2023-01-04T19:38:26.830Z,0.85
2023-01-04T19:40:57.386Z,3.00
2023-01-04T19:43:25.212Z,2.80
2023-01-04T19:45:51.806Z,1.05
2023-01-04T19:48:18.562Z,2.00
2023-01-04T19:50:45.075Z,0.80
2023-01-04T19:53:11.623Z,0.70
2023-01-04T19:55:41.108Z,0.70
2023-01-04T19:58:07.807Z,1.90
2023-01-04T20:00:37.435Z,0.88
2023-01-04T20:03:04.146Z,1.10
2023-01-04T20:05:31.020Z,0.93
2023-01-04T20:07:57.345Z,2.45
2023-01-04T20:10:23.851Z,0.75
2023-01-04T20:12:50.168Z,0.80
2023-01-04T20:15:16.580Z,1.73
2023-01-04T20:17:45.090Z,1.08
2023-01-04T20:20:11.880Z,0.90
2023-01-04T20:22:38.286Z,0.98
2023-01-04T20:25:12.701Z,1.35
2023-01-04T20:27:39.237Z,0.63
2023-01-04T20:30:06.336Z,0.73
2023-01-04T20:32:32.669Z,0.60
2023-01-04T20:34:59.047Z,1.75
2023-01-04T20:37:25.419Z,0.60
2023-01-04T20:39:51.956Z,1.02
2023-01-04T20:42:18.454Z,3.25
2023-01-04T20:44:44.776Z,2.25
2023-01-04T20:47:11.434Z,1.52
2023-01-04T20:49:37.953Z,1.30
2023-01-04T20:52:05.092Z,0.40
2023-01-04T20:54:31.815Z,1.52
2023-01-04T20:56:58.300Z,0.98
2023-01-04T20:59:24.696Z,0.55
2023-01-04T21:01:51.149Z,1.55
2023-01-04T21:04:17.905Z,0.98
2023-01-04T21:06:44.397Z,0.93
2023-01-04T21:09:10.811Z,0.93
2023-01-04T21:11:37.146Z,1.58
2023-01-04T21:14:03.505Z,1.13
2023-01-04T21:16:29.853Z,0.95
2023-01-04T21:18:58.804Z,0.98
2023-01-04T21:21:25.401Z,2.40
2023-01-04T21:23:57.591Z,0.95
2023-01-04T21:26:25.309Z,0.60
2023-01-04T21:28:51.899Z,0.85
2023-01-04T21:31:21.801Z,1.92
2023-01-04T21:33:48.576Z,0.97
2023-01-04T21:36:20.546Z,1.90
2023-01-04T21:38:59.967Z,0.50
2023-01-04T21:41:26.905Z,0.65
2023-01-04T21:43:56.135Z,0.47
2023-01-04T21:46:25.256Z,0.85
2023-01-04T21:48:56.684Z,0.60
2023-01-04T21:51:23.524Z,0.50
2023-01-04T21:53:50.088Z,0.50
2023-01-04T21:56:20.083Z,0.82
2023-01-04T21:58:46.799Z,1.00
2023-01-04T22:01:16.810Z,1.30
2023-01-04T22:03:43.930Z,0.50
2023-01-04T22:06:11.154Z,0.63
2023-01-04T22:08:37.514Z,0.52
2023-01-04T22:11:04.017Z,0.90
2023-01-04T22:13:31.870Z,0.82
2023-01-04T22:15:58.306Z,1.00
2023-01-04T22:18:25.037Z,0.70
2023-01-04T22:21:01.330Z,0.30
2023-01-04T22:23:29.701Z,0.40
2023-01-04T22:25:57.738Z,0.93
2023-01-04T22:28:24.494Z,0.60
2023-01-04T22:30:52.312Z,0.50
2023-01-04T22:33:19.240Z,2.22
2023-01-04T22:35:45.672Z,0.70
2023-01-04T22:38:12.168Z,0.98
2023-01-04T22:40:39.860Z,0.52
2023-01-04T22:43:06.709Z,0.80
2023-01-04T22:45:34.980Z,1.58
2023-01-04T22:48:01.573Z,0.55
2023-01-04T22:50:27.950Z,0.50
2023-01-04T22:52:55.131Z,0.85
2023-01-04T22:55:22.288Z,0.60
2023-01-04T22:57:48.643Z,1.15
2023-01-04T23:00:15.783Z,0.77
2023-01-04T23:02:42.424Z,1.45
2023-01-04T23:05:09.055Z,0.50
2023-01-04T23:07:36.391Z,0.60
2023-01-04T23:10:04.563Z,0.50
2023-01-04T23:12:30.890Z,0.60
2023-01-04T23:14:57.230Z,0.60
2023-01-04T23:17:23.734Z,0.70
2023-01-04T23:19:52.226Z,0.60
2023-01-04T23:22:18.644Z,0.63
2023-01-04T23:24:45.002Z,0.40
2023-01-04T23:27:11.488Z,0.73
2023-01-04T23:29:37.886Z,1.73
2023-01-04T23:32:05.946Z,1.02
2023-01-04T23:34:32.568Z,0.88
2023-01-04T23:36:58.935Z,2.35
2023-01-04T23:39:25.278Z,0.57
2023-01-04T23:41:51.898Z,0.50
2023-01-04T23:44:25.400Z,0.40
2023-01-04T23:46:54.685Z,0.38
2023-01-04T23:49:22.475Z,0.30
2023-01-04T23:51:49.326Z,0.60
2023-01-04T23:54:18.296Z,0.57
2023-01-04T23:56:44.732Z,0.95
2023-01-04T23:59:11.821Z,0.77
